sensor_id;sensor_type;location;lat;lon;timestamp;P1;durP1;ratioP1;P2;durP2;ratioP2
12906;SDS011;6521;50.498;8.474;2023-11-19T00:02:10;1.83;;;1.73;;
12906;SDS011;6521;50.498;8.474;2023-11-19T00:04:40;2.17;;;1.77;;
12906;SDS011;6521;50.498;8.474;2023-11-19T00:07:11;1.67;;;1.53;;
12906;SDS011;6521;50.498;8.474;2023-11-19T00:09:43;3.20;;;2.00;;
12906;SDS011;6521;50.498;8.474;2023-11-19T00:12:14;2.30;;;2.03;;
12906;SDS011;6521;50.498;8.474;2023-11-19T00:14:45;1.87;;;1.77;;
12906;SDS011;6521;50.498;8.474;2023-11-19T00:17:16;3.80;;;2.00;;
12906;SDS011;6521;50.498;8.474;2023-11-19T00:19:47;1.70;;;1.60;;
12906;SDS011;6521;50.498;8.474;2023-11-19T00:22:17;2.57;;;1.93;;
12906;SDS011;6521;50.498;8.474;2023-11-19T00:24:48;2.27;;;1.87;;
12906;SDS011;6521;50.498;8.474;2023-11-19T00:27:19;2.07;;;1.80;;
12906;SDS011;6521;50.498;8.474;2023-11-19T00:29:49;2.53;;;1.90;;
12906;SDS011;6521;50.498;8.474;2023-11-19T00:32:20;2.87;;;2.07;;
12906;SDS011;6521;50.498;8.474;2023-11-19T00:34:51;1.90;;;1.77;;
12906;SDS011;6521;50.498;8.474;2023-11-19T00:37:22;4.57;;;1.80;;
12906;SDS011;6521;50.498;8.474;2023-11-19T00:39:53;2.33;;;1.77;;
12906;SDS011;6521;50.498;8.474;2023-11-19T00:42:24;1.50;;;1.40;;
12906;SDS011;6521;50.498;8.474;2023-11-19T00:44:54;1.83;;;1.73;;
12906;SDS011;6521;50.498;8.474;2023-11-19T00:47:25;2.03;;;1.50;;
12906;SDS011;6521;50.498;8.474;2023-11-19T00:49:56;2.27;;;1.73;;
12906;SDS011;6521;50.498;8.474;2023-11-19T00:52:27;1.70;;;1.60;;
12906;SDS011;6521;50.498;8.474;2023-11-19T00:54:57;1.90;;;1.80;;
12906;SDS011;6521;50.498;8.474;2023-11-19T00:57:28;1.97;;;1.60;;
12906;SDS011;6521;50.498;8.474;2023-11-19T00:59:59;2.27;;;1.77;;
12906;SDS011;6521;50.498;8.474;2023-11-19T01:02:30;4.77;;;1.90;;
12906;SDS011;6521;50.498;8.474;2023-11-19T01:05:00;2.77;;;1.77;;
12906;SDS011;6521;50.498;8.474;2023-11-19T01:07:31;1.80;;;1.70;;
12906;SDS011;6521;50.498;8.474;2023-11-19T01:10:02;4.83;;;1.93;;
12906;SDS011;6521;50.498;8.474;2023-11-19T01:12:33;5.00;;;2.10;;
12906;SDS011;6521;50.498;8.474;2023-11-19T01:15:05;1.60;;;1.50;;
12906;SDS011;6521;50.498;8.474;2023-11-19T01:17:37;1.50;;;1.40;;
12906;SDS011;6521;50.498;8.474;2023-11-19T01:20:08;1.77;;;1.40;;
12906;SDS011;6521;50.498;8.474;2023-11-19T01:22:42;1.50;;;1.40;;
12906;SDS011;6521;50.498;8.474;2023-11-19T01:25:13;4.13;;;1.57;;
12906;SDS011;6521;50.498;8.474;2023-11-19T01:27:45;1.80;;;1.43;;
12906;SDS011;6521;50.498;8.474;2023-11-19T01:30:16;1.60;;;1.50;;
12906;SDS011;6521;50.498;8.474;2023-11-19T01:32:46;1.37;;;1.27;;
12906;SDS011;6521;50.498;8.474;2023-11-19T01:35:17;1.53;;;1.43;;
12906;SDS011;6521;50.498;8.474;2023-11-19T01:37:48;1.43;;;1.33;;
12906;SDS011;6521;50.498;8.474;2023-11-19T01:40:21;1.70;;;1.50;;
12906;SDS011;6521;50.498;8.474;2023-11-19T01:42:52;3.03;;;1.57;;
12906;SDS011;6521;50.498;8.474;2023-11-19T01:45:30;1.10;;;1.10;;
12906;SDS011;6521;50.498;8.474;2023-11-19T01:48:02;3.27;;;1.60;;
12906;SDS011;6521;50.498;8.474;2023-11-19T01:50:36;1.40;;;1.30;;
12906;SDS011;6521;50.498;8.474;2023-11-19T01:53:08;2.63;;;1.13;;
12906;SDS011;6521;50.498;8.474;2023-11-19T01:55:39;1.53;;;1.30;;
12906;SDS011;6521;50.498;8.474;2023-11-19T01:58:10;1.40;;;1.30;;
12906;SDS011;6521;50.498;8.474;2023-11-19T02:00:44;2.23;;;1.53;;
12906;SDS011;6521;50.498;8.474;2023-11-19T02:03:14;2.00;;;1.50;;
12906;SDS011;6521;50.498;8.474;2023-11-19T02:05:47;2.17;;;1.40;;
12906;SDS011;6521;50.498;8.474;2023-11-19T02:08:19;1.17;;;1.10;;
12906;SDS011;6521;50.498;8.474;2023-11-19T02:10:51;1.60;;;1.50;;
12906;SDS011;6521;50.498;8.474;2023-11-19T02:13:25;1.47;;;1.37;;
12906;SDS011;6521;50.498;8.474;2023-11-19T02:15:57;2.07;;;1.50;;
12906;SDS011;6521;50.498;8.474;2023-11-19T02:18:27;2.57;;;1.60;;
12906;SDS011;6521;50.498;8.474;2023-11-19T02:20:59;3.70;;;1.77;;
12906;SDS011;6521;50.498;8.474;2023-11-19T02:23:30;4.70;;;1.73;;
12906;SDS011;6521;50.498;8.474;2023-11-19T02:28:32;3.10;;;2.40;;
12906;SDS011;6521;50.498;8.474;2023-11-19T02:31:03;2.30;;;1.83;;
12906;SDS011;6521;50.498;8.474;2023-11-19T02:33:39;2.23;;;1.67;;
12906;SDS011;6521;50.498;8.474;2023-11-19T02:36:10;4.67;;;2.60;;
12906;SDS011;6521;50.498;8.474;2023-11-19T02:38:41;1.73;;;1.50;;
12906;SDS011;6521;50.498;8.474;2023-11-19T02:41:13;1.67;;;1.57;;
12906;SDS011;6521;50.498;8.474;2023-11-19T02:43:44;1.57;;;1.47;;
12906;SDS011;6521;50.498;8.474;2023-11-19T02:46:15;1.70;;;1.60;;
12906;SDS011;6521;50.498;8.474;2023-11-19T02:48:47;1.63;;;1.53;;
12906;SDS011;6521;50.498;8.474;2023-11-19T02:51:18;2.37;;;1.40;;
12906;SDS011;6521;50.498;8.474;2023-11-19T02:53:49;1.50;;;1.40;;
12906;SDS011;6521;50.498;8.474;2023-11-19T02:56:19;4.70;;;1.77;;
12906;SDS011;6521;50.498;8.474;2023-11-19T02:58:55;2.47;;;1.90;;
12906;SDS011;6521;50.498;8.474;2023-11-19T03:01:26;1.40;;;1.30;;
12906;SDS011;6521;50.498;8.474;2023-11-19T03:04:00;3.37;;;1.70;;
12906;SDS011;6521;50.498;8.474;2023-11-19T03:06:32;2.90;;;2.10;;
12906;SDS011;6521;50.498;8.474;2023-11-19T03:09:03;2.43;;;1.37;;
12906;SDS011;6521;50.498;8.474;2023-11-19T03:11:38;1.40;;;1.30;;
12906;SDS011;6521;50.498;8.474;2023-11-19T03:14:09;1.57;;;1.47;;
12906;SDS011;6521;50.498;8.474;2023-11-19T03:16:40;1.30;;;1.20;;
12906;SDS011;6521;50.498;8.474;2023-11-19T03:19:11;6.17;;;1.50;;
12906;SDS011;6521;50.498;8.474;2023-11-19T03:21:41;1.40;;;1.30;;
12906;SDS011;6521;50.498;8.474;2023-11-19T03:24:15;1.33;;;1.23;;
12906;SDS011;6521;50.498;8.474;2023-11-19T03:26:49;1.80;;;1.20;;
12906;SDS011;6521;50.498;8.474;2023-11-19T03:29:22;4.20;;;1.47;;
12906;SDS011;6521;50.498;8.474;2023-11-19T03:31:53;2.90;;;1.40;;
12906;SDS011;6521;50.498;8.474;2023-11-19T03:34:24;1.43;;;1.33;;
12906;SDS011;6521;50.498;8.474;2023-11-19T03:36:54;2.87;;;1.60;;
12906;SDS011;6521;50.498;8.474;2023-11-19T03:39:26;1.73;;;1.37;;
12906;SDS011;6521;50.498;8.474;2023-11-19T03:41:57;2.30;;;1.80;;
12906;SDS011;6521;50.498;8.474;2023-11-19T03:44:28;1.47;;;1.37;;
12906;SDS011;6521;50.498;8.474;2023-11-19T03:46:58;1.77;;;1.30;;
12906;SDS011;6521;50.498;8.474;2023-11-19T03:49:29;1.50;;;1.40;;
12906;SDS011;6521;50.498;8.474;2023-11-19T03:51:59;2.70;;;2.00;;
12906;SDS011;6521;50.498;8.474;2023-11-19T03:54:30;1.60;;;1.50;;
12906;SDS011;6521;50.498;8.474;2023-11-19T03:57:01;1.97;;;1.30;;
12906;SDS011;6521;50.498;8.474;2023-11-19T03:59:33;1.30;;;1.20;;
12906;SDS011;6521;50.498;8.474;2023-11-19T04:02:05;3.43;;;1.20;;
12906;SDS011;6521;50.498;8.474;2023-11-19T04:04:36;1.73;;;1.30;;
12906;SDS011;6521;50.498;8.474;2023-11-19T04:07:09;1.70;;;1.57;;
12906;SDS011;6521;50.498;8.474;2023-11-19T04:09:39;3.83;;;2.07;;
12906;SDS011;6521;50.498;8.474;2023-11-19T04:12:10;3.07;;;1.27;;
12906;SDS011;6521;50.498;8.474;2023-11-19T04:14:41;1.50;;;1.40;;
12906;SDS011;6521;50.498;8.474;2023-11-19T04:17:12;5.87;;;1.50;;
12906;SDS011;6521;50.498;8.474;2023-11-19T04:19:43;4.03;;;1.50;;
12906;SDS011;6521;50.498;8.474;2023-11-19T04:22:14;1.43;;;1.33;;
12906;SDS011;6521;50.498;8.474;2023-11-19T04:24:44;3.03;;;1.17;;
12906;SDS011;6521;50.498;8.474;2023-11-19T04:27:16;1.60;;;1.50;;
12906;SDS011;6521;50.498;8.474;2023-11-19T04:29:46;2.47;;;1.17;;
12906;SDS011;6521;50.498;8.474;2023-11-19T04:32:17;1.67;;;1.30;;
12906;SDS011;6521;50.498;8.474;2023-11-19T04:34:48;1.30;;;1.20;;
12906;SDS011;6521;50.498;8.474;2023-11-19T04:37:18;2.30;;;1.23;;
12906;SDS011;6521;50.498;8.474;2023-11-19T04:39:49;6.73;;;1.60;;
12906;SDS011;6521;50.498;8.474;2023-11-19T04:42:22;1.00;;;1.00;;
12906;SDS011;6521;50.498;8.474;2023-11-19T04:44:53;1.20;;;1.10;;
12906;SDS011;6521;50.498;8.474;2023-11-19T04:47:23;5.67;;;1.00;;
12906;SDS011;6521;50.498;8.474;2023-11-19T04:49:54;3.30;;;1.20;;
12906;SDS011;6521;50.498;8.474;2023-11-19T04:52:25;1.57;;;1.30;;
12906;SDS011;6521;50.498;8.474;2023-11-19T04:54:58;1.47;;;1.17;;
12906;SDS011;6521;50.498;8.474;2023-11-19T04:57:28;0.90;;;0.90;;
12906;SDS011;6521;50.498;8.474;2023-11-19T04:59:59;3.07;;;1.10;;
12906;SDS011;6521;50.498;8.474;2023-11-19T05:02:30;0.70;;;0.70;;
12906;SDS011;6521;50.498;8.474;2023-11-19T05:05:01;0.90;;;0.90;;
12906;SDS011;6521;50.498;8.474;2023-11-19T05:07:34;2.07;;;0.77;;
12906;SDS011;6521;50.498;8.474;2023-11-19T05:10:05;0.90;;;0.90;;
12906;SDS011;6521;50.498;8.474;2023-11-19T05:12:36;0.93;;;0.70;;
12906;SDS011;6521;50.498;8.474;2023-11-19T05:15:07;1.23;;;0.80;;
12906;SDS011;6521;50.498;8.474;2023-11-19T05:17:38;0.60;;;0.60;;
12906;SDS011;6521;50.498;8.474;2023-11-19T05:20:09;1.37;;;0.80;;
12906;SDS011;6521;50.498;8.474;2023-11-19T05:22:44;3.10;;;0.70;;
12906;SDS011;6521;50.498;8.474;2023-11-19T05:25:16;0.67;;;0.60;;
12906;SDS011;6521;50.498;8.474;2023-11-19T05:27:46;0.73;;;0.73;;
12906;SDS011;6521;50.498;8.474;2023-11-19T05:30:17;2.53;;;0.60;;
12906;SDS011;6521;50.498;8.474;2023-11-19T05:32:48;0.60;;;0.60;;
12906;SDS011;6521;50.498;8.474;2023-11-19T05:35:19;1.90;;;0.90;;
12906;SDS011;6521;50.498;8.474;2023-11-19T05:37:49;0.60;;;0.57;;
12906;SDS011;6521;50.498;8.474;2023-11-19T05:40:20;1.07;;;0.73;;
12906;SDS011;6521;50.498;8.474;2023-11-19T05:42:51;3.47;;;0.87;;
12906;SDS011;6521;50.498;8.474;2023-11-19T05:45:21;1.77;;;0.70;;
12906;SDS011;6521;50.498;8.474;2023-11-19T05:47:52;0.93;;;0.90;;
12906;SDS011;6521;50.498;8.474;2023-11-19T05:50:23;1.47;;;0.80;;
12906;SDS011;6521;50.498;8.474;2023-11-19T05:52:54;1.53;;;0.77;;
12906;SDS011;6521;50.498;8.474;2023-11-19T05:55:24;1.10;;;0.67;;
12906;SDS011;6521;50.498;8.474;2023-11-19T05:57:58;3.07;;;0.70;;
12906;SDS011;6521;50.498;8.474;2023-11-19T06:00:28;2.30;;;0.70;;
12906;SDS011;6521;50.498;8.474;2023-11-19T06:02:59;1.07;;;0.80;;
12906;SDS011;6521;50.498;8.474;2023-11-19T06:05:30;0.60;;;0.60;;
12906;SDS011;6521;50.498;8.474;2023-11-19T06:08:00;2.20;;;0.70;;
12906;SDS011;6521;50.498;8.474;2023-11-19T06:10:31;0.67;;;0.67;;
12906;SDS011;6521;50.498;8.474;2023-11-19T06:13:02;0.70;;;0.70;;
12906;SDS011;6521;50.498;8.474;2023-11-19T06:15:35;0.67;;;0.63;;
12906;SDS011;6521;50.498;8.474;2023-11-19T06:18:06;0.87;;;0.53;;
12906;SDS011;6521;50.498;8.474;2023-11-19T06:20:37;0.60;;;0.60;;
12906;SDS011;6521;50.498;8.474;2023-11-19T06:23:08;3.40;;;0.97;;
12906;SDS011;6521;50.498;8.474;2023-11-19T06:25:39;2.50;;;0.80;;
12906;SDS011;6521;50.498;8.474;2023-11-19T06:28:10;3.50;;;1.07;;
12906;SDS011;6521;50.498;8.474;2023-11-19T06:30:40;0.67;;;0.67;;
12906;SDS011;6521;50.498;8.474;2023-11-19T06:33:14;6.70;;;1.00;;
12906;SDS011;6521;50.498;8.474;2023-11-19T06:35:45;9.20;;;1.00;;
12906;SDS011;6521;50.498;8.474;2023-11-19T06:38:16;14.60;;;1.43;;
12906;SDS011;6521;50.498;8.474;2023-11-19T06:40:46;5.47;;;1.00;;
12906;SDS011;6521;50.498;8.474;2023-11-19T06:43:17;2.13;;;1.00;;
12906;SDS011;6521;50.498;8.474;2023-11-19T06:45:48;4.93;;;1.20;;
12906;SDS011;6521;50.498;8.474;2023-11-19T06:48:18;1.03;;;0.80;;
12906;SDS011;6521;50.498;8.474;2023-11-19T06:50:49;3.07;;;1.40;;
12906;SDS011;6521;50.498;8.474;2023-11-19T06:53:20;1.83;;;1.10;;
12906;SDS011;6521;50.498;8.474;2023-11-19T06:55:51;13.20;;;1.50;;
12906;SDS011;6521;50.498;8.474;2023-11-19T06:58:21;6.37;;;1.93;;
12906;SDS011;6521;50.498;8.474;2023-11-19T07:00:52;3.63;;;1.33;;
12906;SDS011;6521;50.498;8.474;2023-11-19T07:03:23;6.40;;;1.83;;
12906;SDS011;6521;50.498;8.474;2023-11-19T07:05:54;3.57;;;1.00;;
12906;SDS011;6521;50.498;8.474;2023-11-19T07:08:26;9.37;;;1.23;;
12906;SDS011;6521;50.498;8.474;2023-11-19T07:10:57;4.83;;;1.50;;
12906;SDS011;6521;50.498;8.474;2023-11-19T07:13:28;3.47;;;1.57;;
12906;SDS011;6521;50.498;8.474;2023-11-19T07:15:58;11.93;;;3.20;;
12906;SDS011;6521;50.498;8.474;2023-11-19T07:18:29;8.87;;;3.50;;
12906;SDS011;6521;50.498;8.474;2023-11-19T07:21:00;9.07;;;2.90;;
12906;SDS011;6521;50.498;8.474;2023-11-19T07:23:30;4.67;;;2.60;;
12906;SDS011;6521;50.498;8.474;2023-11-19T07:26:04;11.13;;;4.20;;
12906;SDS011;6521;50.498;8.474;2023-11-19T07:28:35;2.23;;;1.70;;
12906;SDS011;6521;50.498;8.474;2023-11-19T07:31:06;10.47;;;1.90;;
12906;SDS011;6521;50.498;8.474;2023-11-19T07:33:39;8.50;;;1.87;;
12906;SDS011;6521;50.498;8.474;2023-11-19T07:36:12;5.00;;;1.40;;
12906;SDS011;6521;50.498;8.474;2023-11-19T07:38:45;4.80;;;2.00;;
12906;SDS011;6521;50.498;8.474;2023-11-19T07:41:16;5.30;;;1.90;;
12906;SDS011;6521;50.498;8.474;2023-11-19T07:43:46;3.67;;;2.10;;
12906;SDS011;6521;50.498;8.474;2023-11-19T07:46:17;4.70;;;1.90;;
12906;SDS011;6521;50.498;8.474;2023-11-19T07:48:50;3.97;;;1.60;;
12906;SDS011;6521;50.498;8.474;2023-11-19T07:51:20;2.13;;;1.60;;
12906;SDS011;6521;50.498;8.474;2023-11-19T07:53:51;1.90;;;1.60;;
12906;SDS011;6521;50.498;8.474;2023-11-19T07:56:22;10.07;;;1.83;;
12906;SDS011;6521;50.498;8.474;2023-11-19T07:58:53;6.63;;;1.77;;
12906;SDS011;6521;50.498;8.474;2023-11-19T08:01:23;3.13;;;1.80;;
12906;SDS011;6521;50.498;8.474;2023-11-19T08:03:54;5.33;;;2.00;;
12906;SDS011;6521;50.498;8.474;2023-11-19T08:06:25;7.63;;;2.60;;
12906;SDS011;6521;50.498;8.474;2023-11-19T08:08:55;10.73;;;2.23;;
12906;SDS011;6521;50.498;8.474;2023-11-19T08:11:26;5.57;;;2.30;;
12906;SDS011;6521;50.498;8.474;2023-11-19T08:13:57;9.40;;;2.30;;
12906;SDS011;6521;50.498;8.474;2023-11-19T08:16:28;3.70;;;1.70;;
12906;SDS011;6521;50.498;8.474;2023-11-19T08:18:59;7.87;;;1.83;;
12906;SDS011;6521;50.498;8.474;2023-11-19T08:21:29;8.93;;;2.07;;
12906;SDS011;6521;50.498;8.474;2023-11-19T08:24:00;4.13;;;1.50;;
12906;SDS011;6521;50.498;8.474;2023-11-19T08:26:31;4.30;;;1.60;;
12906;SDS011;6521;50.498;8.474;2023-11-19T08:32:55;9.87;;;3.53;;
12906;SDS011;6521;50.498;8.474;2023-11-19T08:35:25;9.00;;;2.60;;
12906;SDS011;6521;50.498;8.474;2023-11-19T08:37:56;6.30;;;2.93;;
12906;SDS011;6521;50.498;8.474;2023-11-19T08:40:27;6.57;;;2.63;;
12906;SDS011;6521;50.498;8.474;2023-11-19T08:43:00;7.10;;;2.67;;
12906;SDS011;6521;50.498;8.474;2023-11-19T08:45:31;5.73;;;1.90;;
12906;SDS011;6521;50.498;8.474;2023-11-19T08:48:02;6.50;;;1.90;;
12906;SDS011;6521;50.498;8.474;2023-11-19T08:50:32;9.60;;;2.73;;
12906;SDS011;6521;50.498;8.474;2023-11-19T08:53:03;9.07;;;1.80;;
12906;SDS011;6521;50.498;8.474;2023-11-19T08:55:37;9.23;;;2.00;;
12906;SDS011;6521;50.498;8.474;2023-11-19T08:58:07;6.10;;;1.80;;
12906;SDS011;6521;50.498;8.474;2023-11-19T09:00:38;15.50;;;2.87;;
12906;SDS011;6521;50.498;8.474;2023-11-19T09:03:09;8.77;;;2.70;;
12906;SDS011;6521;50.498;8.474;2023-11-19T09:05:39;7.70;;;2.53;;
12906;SDS011;6521;50.498;8.474;2023-11-19T09:08:10;7.73;;;2.33;;
12906;SDS011;6521;50.498;8.474;2023-11-19T09:10:42;9.53;;;2.07;;
12906;SDS011;6521;50.498;8.474;2023-11-19T09:13:13;12.47;;;2.50;;
12906;SDS011;6521;50.498;8.474;2023-11-19T09:15:43;16.87;;;2.47;;
12906;SDS011;6521;50.498;8.474;2023-11-19T09:18:14;13.70;;;2.57;;
12906;SDS011;6521;50.498;8.474;2023-11-19T09:20:45;10.00;;;2.70;;
12906;SDS011;6521;50.498;8.474;2023-11-19T09:23:16;10.90;;;2.40;;
12906;SDS011;6521;50.498;8.474;2023-11-19T09:25:47;11.23;;;2.80;;
12906;SDS011;6521;50.498;8.474;2023-11-19T09:28:17;19.63;;;3.50;;
12906;SDS011;6521;50.498;8.474;2023-11-19T09:30:48;6.13;;;2.30;;
12906;SDS011;6521;50.498;8.474;2023-11-19T09:33:19;28.23;;;3.60;;
12906;SDS011;6521;50.498;8.474;2023-11-19T09:35:50;13.63;;;2.57;;
12906;SDS011;6521;50.498;8.474;2023-11-19T09:38:21;12.40;;;2.43;;
12906;SDS011;6521;50.498;8.474;2023-11-19T09:40:51;14.13;;;2.77;;
12906;SDS011;6521;50.498;8.474;2023-11-19T09:43:22;7.57;;;2.40;;
12906;SDS011;6521;50.498;8.474;2023-11-19T09:45:53;12.93;;;2.90;;
12906;SDS011;6521;50.498;8.474;2023-11-19T09:48:26;18.40;;;3.03;;
12906;SDS011;6521;50.498;8.474;2023-11-19T09:50:58;15.73;;;2.93;;
12906;SDS011;6521;50.498;8.474;2023-11-19T09:53:29;11.17;;;2.57;;
12906;SDS011;6521;50.498;8.474;2023-11-19T09:56:00;7.63;;;2.20;;
12906;SDS011;6521;50.498;8.474;2023-11-19T09:58:33;15.47;;;2.93;;
12906;SDS011;6521;50.498;8.474;2023-11-19T10:01:04;16.20;;;2.00;;
12906;SDS011;6521;50.498;8.474;2023-11-19T10:03:40;12.43;;;2.63;;
12906;SDS011;6521;50.498;8.474;2023-11-19T10:06:11;11.47;;;3.07;;
12906;SDS011;6521;50.498;8.474;2023-11-19T10:08:43;15.57;;;2.90;;
12906;SDS011;6521;50.498;8.474;2023-11-19T10:11:14;21.02;;;5.10;;
12906;SDS011;6521;50.498;8.474;2023-11-19T10:13:46;19.65;;;3.50;;
12906;SDS011;6521;50.498;8.474;2023-11-19T10:16:18;16.58;;;5.25;;
12906;SDS011;6521;50.498;8.474;2023-11-19T10:18:49;12.93;;;3.13;;
12906;SDS011;6521;50.498;8.474;2023-11-19T10:21:23;19.95;;;4.28;;
12906;SDS011;6521;50.498;8.474;2023-11-19T10:23:55;19.03;;;5.17;;
12906;SDS011;6521;50.498;8.474;2023-11-19T10:26:33;15.02;;;3.92;;
12906;SDS011;6521;50.498;8.474;2023-11-19T10:29:06;14.50;;;3.33;;
12906;SDS011;6521;50.498;8.474;2023-11-19T10:31:37;17.17;;;3.22;;
12906;SDS011;6521;50.498;8.474;2023-11-19T10:34:13;19.98;;;3.33;;
12906;SDS011;6521;50.498;8.474;2023-11-19T10:36:55;15.82;;;3.10;;
12906;SDS011;6521;50.498;8.474;2023-11-19T10:39:33;14.82;;;3.03;;
12906;SDS011;6521;50.498;8.474;2023-11-19T10:42:26;17.20;;;3.22;;
12906;SDS011;6521;50.498;8.474;2023-11-19T10:44:57;10.23;;;2.85;;
12906;SDS011;6521;50.498;8.474;2023-11-19T10:47:28;9.75;;;3.10;;
12906;SDS011;6521;50.498;8.474;2023-11-19T10:50:01;13.77;;;2.95;;
12906;SDS011;6521;50.498;8.474;2023-11-19T10:52:31;9.07;;;2.72;;
12906;SDS011;6521;50.498;8.474;2023-11-19T10:55:03;15.02;;;2.75;;
12906;SDS011;6521;50.498;8.474;2023-11-19T10:57:40;12.05;;;2.97;;
12906;SDS011;6521;50.498;8.474;2023-11-19T11:00:14;14.05;;;3.05;;
12906;SDS011;6521;50.498;8.474;2023-11-19T11:02:50;12.18;;;3.33;;
12906;SDS011;6521;50.498;8.474;2023-11-19T11:05:22;14.60;;;3.67;;
12906;SDS011;6521;50.498;8.474;2023-11-19T11:07:57;17.15;;;3.70;;
12906;SDS011;6521;50.498;8.474;2023-11-19T11:10:30;16.10;;;4.13;;
12906;SDS011;6521;50.498;8.474;2023-11-19T11:13:06;14.98;;;3.55;;
12906;SDS011;6521;50.498;8.474;2023-11-19T11:15:37;10.85;;;2.60;;
12906;SDS011;6521;50.498;8.474;2023-11-19T11:18:09;16.52;;;3.20;;
12906;SDS011;6521;50.498;8.474;2023-11-19T11:20:40;8.63;;;2.97;;
12906;SDS011;6521;50.498;8.474;2023-11-19T11:27:12;13.68;;;3.38;;
12906;SDS011;6521;50.498;8.474;2023-11-19T11:32:30;12.85;;;3.22;;
12906;SDS011;6521;50.498;8.474;2023-11-19T11:38:06;8.23;;;2.85;;
12906;SDS011;6521;50.498;8.474;2023-11-19T11:40:38;10.77;;;3.03;;
12906;SDS011;6521;50.498;8.474;2023-11-19T11:49:03;16.13;;;3.17;;
12906;SDS011;6521;50.498;8.474;2023-11-19T11:57:10;13.10;;;3.35;;
12906;SDS011;6521;50.498;8.474;2023-11-19T11:59:47;16.60;;;3.90;;
12906;SDS011;6521;50.498;8.474;2023-11-19T12:02:19;16.75;;;3.60;;
12906;SDS011;6521;50.498;8.474;2023-11-19T12:04:52;12.73;;;3.13;;
12906;SDS011;6521;50.498;8.474;2023-11-19T12:07:24;14.77;;;3.20;;
12906;SDS011;6521;50.498;8.474;2023-11-19T12:10:06;13.88;;;3.47;;
12906;SDS011;6521;50.498;8.474;2023-11-19T12:12:38;15.32;;;3.53;;
12906;SDS011;6521;50.498;8.474;2023-11-19T12:15:12;15.27;;;3.55;;
12906;SDS011;6521;50.498;8.474;2023-11-19T12:17:48;9.73;;;3.72;;
12906;SDS011;6521;50.498;8.474;2023-11-19T12:20:21;14.60;;;3.25;;
12906;SDS011;6521;50.498;8.474;2023-11-19T12:22:56;13.20;;;3.30;;
12906;SDS011;6521;50.498;8.474;2023-11-19T12:25:27;13.23;;;3.35;;
12906;SDS011;6521;50.498;8.474;2023-11-19T12:28:04;13.77;;;3.47;;
12906;SDS011;6521;50.498;8.474;2023-11-19T12:30:35;16.83;;;3.53;;
12906;SDS011;6521;50.498;8.474;2023-11-19T12:33:09;19.13;;;4.18;;
12906;SDS011;6521;50.498;8.474;2023-11-19T12:35:41;12.10;;;2.97;;
12906;SDS011;6521;50.498;8.474;2023-11-19T12:41:06;14.32;;;3.05;;
12906;SDS011;6521;50.498;8.474;2023-11-19T12:43:37;11.48;;;3.08;;
12906;SDS011;6521;50.498;8.474;2023-11-19T12:46:21;11.68;;;3.20;;
12906;SDS011;6521;50.498;8.474;2023-11-19T12:48:53;12.85;;;4.50;;
12906;SDS011;6521;50.498;8.474;2023-11-19T12:51:30;14.75;;;3.03;;
12906;SDS011;6521;50.498;8.474;2023-11-19T12:54:01;14.15;;;3.35;;
12906;SDS011;6521;50.498;8.474;2023-11-19T12:56:32;12.52;;;3.67;;
12906;SDS011;6521;50.498;8.474;2023-11-19T12:59:12;16.55;;;3.17;;
12906;SDS011;6521;50.498;8.474;2023-11-19T13:04:29;15.45;;;3.30;;
12906;SDS011;6521;50.498;8.474;2023-11-19T13:07:03;13.48;;;2.92;;
12906;SDS011;6521;50.498;8.474;2023-11-19T13:09:34;16.95;;;4.10;;
12906;SDS011;6521;50.498;8.474;2023-11-19T13:12:14;14.98;;;4.15;;
12906;SDS011;6521;50.498;8.474;2023-11-19T13:14:47;17.38;;;3.50;;
12906;SDS011;6521;50.498;8.474;2023-11-19T13:17:19;16.92;;;3.90;;
12906;SDS011;6521;50.498;8.474;2023-11-19T13:19:51;13.63;;;3.38;;
12906;SDS011;6521;50.498;8.474;2023-11-19T13:22:22;13.52;;;3.30;;
12906;SDS011;6521;50.498;8.474;2023-11-19T13:24:53;10.85;;;2.35;;
12906;SDS011;6521;50.498;8.474;2023-11-19T13:27:24;9.68;;;2.35;;
12906;SDS011;6521;50.498;8.474;2023-11-19T13:29:54;11.27;;;2.70;;
12906;SDS011;6521;50.498;8.474;2023-11-19T13:32:25;16.15;;;2.75;;
12906;SDS011;6521;50.498;8.474;2023-11-19T13:34:56;8.43;;;2.43;;
12906;SDS011;6521;50.498;8.474;2023-11-19T13:37:27;9.10;;;2.60;;
12906;SDS011;6521;50.498;8.474;2023-11-19T13:39:58;16.50;;;3.80;;
12906;SDS011;6521;50.498;8.474;2023-11-19T13:42:28;9.95;;;2.60;;
12906;SDS011;6521;50.498;8.474;2023-11-19T13:44:59;9.40;;;2.58;;
12906;SDS011;6521;50.498;8.474;2023-11-19T13:47:30;17.92;;;3.15;;
12906;SDS011;6521;50.498;8.474;2023-11-19T13:50:01;14.90;;;3.90;;
12906;SDS011;6521;50.498;8.474;2023-11-19T13:52:31;15.85;;;3.40;;
12906;SDS011;6521;50.498;8.474;2023-11-19T13:55:02;12.15;;;3.33;;
12906;SDS011;6521;50.498;8.474;2023-11-19T13:57:33;7.55;;;2.45;;
12906;SDS011;6521;50.498;8.474;2023-11-19T14:00:08;9.20;;;3.17;;
12906;SDS011;6521;50.498;8.474;2023-11-19T14:02:47;12.02;;;4.13;;
12906;SDS011;6521;50.498;8.474;2023-11-19T14:05:19;10.97;;;4.37;;
12906;SDS011;6521;50.498;8.474;2023-11-19T14:07:49;13.57;;;3.77;;
12906;SDS011;6521;50.498;8.474;2023-11-19T14:10:22;10.50;;;3.07;;
12906;SDS011;6521;50.498;8.474;2023-11-19T14:12:53;10.70;;;2.80;;
12906;SDS011;6521;50.498;8.474;2023-11-19T14:15:23;20.63;;;3.30;;
12906;SDS011;6521;50.498;8.474;2023-11-19T14:17:54;14.03;;;3.00;;
12906;SDS011;6521;50.498;8.474;2023-11-19T14:20:25;14.40;;;2.97;;
12906;SDS011;6521;50.498;8.474;2023-11-19T14:22:56;15.23;;;3.80;;
12906;SDS011;6521;50.498;8.474;2023-11-19T14:25:26;10.57;;;3.00;;
12906;SDS011;6521;50.498;8.474;2023-11-19T14:27:58;16.10;;;3.37;;
12906;SDS011;6521;50.498;8.474;2023-11-19T14:30:29;13.23;;;3.57;;
12906;SDS011;6521;50.498;8.474;2023-11-19T14:33:00;12.07;;;3.73;;
12906;SDS011;6521;50.498;8.474;2023-11-19T14:35:30;15.60;;;4.40;;
12906;SDS011;6521;50.498;8.474;2023-11-19T14:38:03;15.83;;;4.40;;
12906;SDS011;6521;50.498;8.474;2023-11-19T14:40:40;11.13;;;3.87;;
12906;SDS011;6521;50.498;8.474;2023-11-19T14:43:13;14.27;;;3.03;;
12906;SDS011;6521;50.498;8.474;2023-11-19T14:45:45;10.88;;;2.63;;
12906;SDS011;6521;50.498;8.474;2023-11-19T14:48:16;11.53;;;2.47;;
12906;SDS011;6521;50.498;8.474;2023-11-19T14:50:48;18.23;;;3.13;;
12906;SDS011;6521;50.498;8.474;2023-11-19T14:53:20;21.02;;;3.30;;
12906;SDS011;6521;50.498;8.474;2023-11-19T14:55:51;11.67;;;2.53;;
12906;SDS011;6521;50.498;8.474;2023-11-19T14:58:21;23.57;;;3.40;;
12906;SDS011;6521;50.498;8.474;2023-11-19T15:00:52;16.93;;;3.33;;
12906;SDS011;6521;50.498;8.474;2023-11-19T15:03:23;21.50;;;4.37;;
12906;SDS011;6521;50.498;8.474;2023-11-19T15:05:54;10.70;;;2.33;;
12906;SDS011;6521;50.498;8.474;2023-11-19T15:08:24;15.10;;;4.23;;
12906;SDS011;6521;50.498;8.474;2023-11-19T15:10:55;10.63;;;3.53;;
12906;SDS011;6521;50.498;8.474;2023-11-19T15:13:29;34.47;;;4.63;;
12906;SDS011;6521;50.498;8.474;2023-11-19T15:16:00;12.13;;;3.93;;
12906;SDS011;6521;50.498;8.474;2023-11-19T15:18:31;12.47;;;3.93;;
12906;SDS011;6521;50.498;8.474;2023-11-19T15:21:02;11.93;;;4.37;;
12906;SDS011;6521;50.498;8.474;2023-11-19T15:23:33;16.63;;;4.53;;
12906;SDS011;6521;50.498;8.474;2023-11-19T15:26:04;17.87;;;5.10;;
12906;SDS011;6521;50.498;8.474;2023-11-19T15:28:37;16.93;;;5.03;;
12906;SDS011;6521;50.498;8.474;2023-11-19T15:31:07;18.90;;;4.00;;
12906;SDS011;6521;50.498;8.474;2023-11-19T15:33:38;15.27;;;5.43;;
12906;SDS011;6521;50.498;8.474;2023-11-19T15:36:09;18.00;;;4.13;;
12906;SDS011;6521;50.498;8.474;2023-11-19T15:38:40;13.03;;;3.50;;
12906;SDS011;6521;50.498;8.474;2023-11-19T15:41:11;13.40;;;4.00;;
12906;SDS011;6521;50.498;8.474;2023-11-19T15:43:41;10.13;;;3.47;;
12906;SDS011;6521;50.498;8.474;2023-11-19T15:46:12;11.30;;;3.70;;
12906;SDS011;6521;50.498;8.474;2023-11-19T15:48:43;12.13;;;3.47;;
12906;SDS011;6521;50.498;8.474;2023-11-19T15:51:14;12.17;;;3.40;;
12906;SDS011;6521;50.498;8.474;2023-11-19T15:53:45;11.17;;;2.83;;
12906;SDS011;6521;50.498;8.474;2023-11-19T15:56:16;12.87;;;3.33;;